sensor_id;sensor_type;location;lat;lon;timestamp;P1;durP1;ratioP1;P2;durP2;ratioP2
62707;SDS011;48769;51.624;5.886;2024-01-30T00:01:01;32.55;;;19.20;;
62707;SDS011;48769;51.624;5.886;2024-01-30T00:03:26;22.90;;;17.55;;
62707;SDS011;48769;51.624;5.886;2024-01-30T00:05:51;26.98;;;17.77;;
62707;SDS011;48769;51.624;5.886;2024-01-30T00:08:17;24.60;;;17.77;;
62707;SDS011;48769;51.624;5.886;2024-01-30T00:10:42;23.17;;;17.35;;
62707;SDS011;48769;51.624;5.886;2024-01-30T00:13:08;22.42;;;16.58;;
62707;SDS011;48769;51.624;5.886;2024-01-30T00:15:34;21.67;;;15.43;;
62707;SDS011;48769;51.624;5.886;2024-01-30T00:17:59;22.98;;;17.08;;
62707;SDS011;48769;51.624;5.886;2024-01-30T00:20:25;21.40;;;16.05;;
62707;SDS011;48769;51.624;5.886;2024-01-30T00:22:50;22.20;;;16.25;;
62707;SDS011;48769;51.624;5.886;2024-01-30T00:25:15;23.17;;;17.17;;
62707;SDS011;48769;51.624;5.886;2024-01-30T00:27:41;22.52;;;15.93;;
62707;SDS011;48769;51.624;5.886;2024-01-30T00:30:06;19.88;;;15.57;;
62707;SDS011;48769;51.624;5.886;2024-01-30T00:32:32;26.98;;;16.10;;
62707;SDS011;48769;51.624;5.886;2024-01-30T00:34:57;24.23;;;16.25;;
62707;SDS011;48769;51.624;5.886;2024-01-30T00:37:23;21.05;;;15.15;;
62707;SDS011;48769;51.624;5.886;2024-01-30T00:39:48;23.38;;;16.45;;
62707;SDS011;48769;51.624;5.886;2024-01-30T00:42:14;20.98;;;15.00;;
62707;SDS011;48769;51.624;5.886;2024-01-30T00:44:39;21.63;;;15.73;;
62707;SDS011;48769;51.624;5.886;2024-01-30T00:47:05;19.92;;;14.95;;
62707;SDS011;48769;51.624;5.886;2024-01-30T00:49:30;23.52;;;16.00;;
62707;SDS011;48769;51.624;5.886;2024-01-30T00:51:56;26.67;;;17.15;;
62707;SDS011;48769;51.624;5.886;2024-01-30T00:54:21;23.25;;;16.52;;
62707;SDS011;48769;51.624;5.886;2024-01-30T00:56:47;20.90;;;15.90;;
62707;SDS011;48769;51.624;5.886;2024-01-30T00:59:12;18.25;;;14.70;;
62707;SDS011;48769;51.624;5.886;2024-01-30T01:01:37;25.08;;;17.45;;
62707;SDS011;48769;51.624;5.886;2024-01-30T01:04:03;24.77;;;17.48;;
62707;SDS011;48769;51.624;5.886;2024-01-30T01:06:28;23.70;;;16.38;;
62707;SDS011;48769;51.624;5.886;2024-01-30T01:08:53;26.83;;;18.45;;
62707;SDS011;48769;51.624;5.886;2024-01-30T01:11:19;24.52;;;16.88;;
62707;SDS011;48769;51.624;5.886;2024-01-30T01:13:44;26.20;;;18.42;;
62707;SDS011;48769;51.624;5.886;2024-01-30T01:16:10;26.30;;;18.85;;
62707;SDS011;48769;51.624;5.886;2024-01-30T01:18:35;28.02;;;17.40;;
62707;SDS011;48769;51.624;5.886;2024-01-30T01:21:00;28.65;;;17.98;;
62707;SDS011;48769;51.624;5.886;2024-01-30T01:23:26;22.95;;;17.08;;
62707;SDS011;48769;51.624;5.886;2024-01-30T01:25:51;22.15;;;17.35;;
62707;SDS011;48769;51.624;5.886;2024-01-30T01:28:17;21.05;;;16.33;;
62707;SDS011;48769;51.624;5.886;2024-01-30T01:30:42;26.98;;;17.17;;
62707;SDS011;48769;51.624;5.886;2024-01-30T01:33:07;24.70;;;17.10;;
62707;SDS011;48769;51.624;5.886;2024-01-30T01:35:34;25.77;;;15.93;;
62707;SDS011;48769;51.624;5.886;2024-01-30T01:37:59;24.40;;;17.77;;
62707;SDS011;48769;51.624;5.886;2024-01-30T01:40:29;23.73;;;15.98;;
62707;SDS011;48769;51.624;5.886;2024-01-30T01:42:55;25.25;;;17.02;;
62707;SDS011;48769;51.624;5.886;2024-01-30T01:45:21;24.02;;;17.75;;
62707;SDS011;48769;51.624;5.886;2024-01-30T01:47:47;25.08;;;17.98;;
62707;SDS011;48769;51.624;5.886;2024-01-30T01:50:16;24.67;;;17.15;;
62707;SDS011;48769;51.624;5.886;2024-01-30T01:52:49;25.42;;;17.45;;
62707;SDS011;48769;51.624;5.886;2024-01-30T01:55:15;24.67;;;17.42;;
62707;SDS011;48769;51.624;5.886;2024-01-30T01:57:44;22.45;;;17.00;;
62707;SDS011;48769;51.624;5.886;2024-01-30T02:00:10;29.00;;;17.95;;
62707;SDS011;48769;51.624;5.886;2024-01-30T02:02:37;26.90;;;17.85;;
62707;SDS011;48769;51.624;5.886;2024-01-30T02:05:04;23.30;;;17.67;;
62707;SDS011;48769;51.624;5.886;2024-01-30T02:07:29;23.75;;;17.35;;
62707;SDS011;48769;51.624;5.886;2024-01-30T02:09:55;25.70;;;18.48;;
62707;SDS011;48769;51.624;5.886;2024-01-30T02:12:20;23.70;;;16.80;;
62707;SDS011;48769;51.624;5.886;2024-01-30T02:14:46;27.05;;;19.40;;
62707;SDS011;48769;51.624;5.886;2024-01-30T02:17:15;26.95;;;18.45;;
62707;SDS011;48769;51.624;5.886;2024-01-30T02:19:41;25.90;;;18.42;;
62707;SDS011;48769;51.624;5.886;2024-01-30T02:22:06;25.92;;;17.95;;
62707;SDS011;48769;51.624;5.886;2024-01-30T02:24:32;26.35;;;18.65;;
62707;SDS011;48769;51.624;5.886;2024-01-30T02:26:58;30.88;;;17.85;;
62707;SDS011;48769;51.624;5.886;2024-01-30T02:29:23;25.15;;;17.67;;
62707;SDS011;48769;51.624;5.886;2024-01-30T02:31:49;26.55;;;17.45;;
62707;SDS011;48769;51.624;5.886;2024-01-30T02:34:14;24.85;;;17.60;;
62707;SDS011;48769;51.624;5.886;2024-01-30T02:36:43;25.20;;;17.80;;
62707;SDS011;48769;51.624;5.886;2024-01-30T02:39:09;30.77;;;19.15;;
62707;SDS011;48769;51.624;5.886;2024-01-30T02:41:34;26.77;;;17.83;;
62707;SDS011;48769;51.624;5.886;2024-01-30T02:44:00;24.85;;;17.05;;
62707;SDS011;48769;51.624;5.886;2024-01-30T02:46:25;24.58;;;17.50;;
62707;SDS011;48769;51.624;5.886;2024-01-30T02:48:50;26.02;;;16.80;;
62707;SDS011;48769;51.624;5.886;2024-01-30T02:51:16;21.17;;;16.58;;
62707;SDS011;48769;51.624;5.886;2024-01-30T02:53:41;24.90;;;16.92;;
62707;SDS011;48769;51.624;5.886;2024-01-30T02:56:07;32.20;;;19.25;;
62707;SDS011;48769;51.624;5.886;2024-01-30T02:58:34;25.25;;;17.90;;
62707;SDS011;48769;51.624;5.886;2024-01-30T03:01:00;24.65;;;17.92;;
62707;SDS011;48769;51.624;5.886;2024-01-30T03:03:25;26.95;;;17.10;;
62707;SDS011;48769;51.624;5.886;2024-01-30T03:05:51;25.88;;;16.85;;
62707;SDS011;48769;51.624;5.886;2024-01-30T03:08:16;26.95;;;16.52;;
62707;SDS011;48769;51.624;5.886;2024-01-30T03:10:41;26.60;;;17.75;;
62707;SDS011;48769;51.624;5.886;2024-01-30T03:13:06;26.63;;;17.27;;
62707;SDS011;48769;51.624;5.886;2024-01-30T03:15:32;23.83;;;16.88;;
62707;SDS011;48769;51.624;5.886;2024-01-30T03:17:57;23.35;;;16.73;;
62707;SDS011;48769;51.624;5.886;2024-01-30T03:20:22;23.08;;;17.00;;
62707;SDS011;48769;51.624;5.886;2024-01-30T03:22:48;22.88;;;16.23;;
62707;SDS011;48769;51.624;5.886;2024-01-30T03:25:13;24.90;;;17.95;;
62707;SDS011;48769;51.624;5.886;2024-01-30T03:27:38;27.45;;;16.42;;
62707;SDS011;48769;51.624;5.886;2024-01-30T03:30:04;20.23;;;15.27;;
62707;SDS011;48769;51.624;5.886;2024-01-30T03:32:30;25.98;;;17.55;;
62707;SDS011;48769;51.624;5.886;2024-01-30T03:34:55;20.85;;;15.30;;
62707;SDS011;48769;51.624;5.886;2024-01-30T03:37:20;24.17;;;16.80;;
62707;SDS011;48769;51.624;5.886;2024-01-30T03:39:46;25.77;;;18.35;;
62707;SDS011;48769;51.624;5.886;2024-01-30T03:42:11;24.83;;;17.75;;
62707;SDS011;48769;51.624;5.886;2024-01-30T03:44:36;30.52;;;18.00;;
62707;SDS011;48769;51.624;5.886;2024-01-30T03:47:01;35.83;;;18.98;;
62707;SDS011;48769;51.624;5.886;2024-01-30T03:49:27;26.10;;;17.98;;
62707;SDS011;48769;51.624;5.886;2024-01-30T03:51:52;27.02;;;17.73;;
62707;SDS011;48769;51.624;5.886;2024-01-30T03:54:18;26.65;;;17.17;;
62707;SDS011;48769;51.624;5.886;2024-01-30T03:56:43;27.75;;;18.83;;
62707;SDS011;48769;51.624;5.886;2024-01-30T03:59:08;27.35;;;17.60;;
62707;SDS011;48769;51.624;5.886;2024-01-30T04:01:34;27.23;;;16.83;;
62707;SDS011;48769;51.624;5.886;2024-01-30T04:03:59;25.33;;;17.33;;
62707;SDS011;48769;51.624;5.886;2024-01-30T04:06:24;22.83;;;17.63;;
62707;SDS011;48769;51.624;5.886;2024-01-30T04:08:50;24.10;;;18.05;;
62707;SDS011;48769;51.624;5.886;2024-01-30T04:11:15;22.92;;;17.10;;
62707;SDS011;48769;51.624;5.886;2024-01-30T04:13:43;26.92;;;17.77;;
62707;SDS011;48769;51.624;5.886;2024-01-30T04:16:18;24.30;;;17.77;;
62707;SDS011;48769;51.624;5.886;2024-01-30T04:18:44;28.75;;;18.00;;
62707;SDS011;48769;51.624;5.886;2024-01-30T04:21:09;28.02;;;17.83;;
62707;SDS011;48769;51.624;5.886;2024-01-30T04:23:35;23.80;;;16.95;;
62707;SDS011;48769;51.624;5.886;2024-01-30T04:26:00;23.92;;;16.58;;
62707;SDS011;48769;51.624;5.886;2024-01-30T04:28:25;25.48;;;16.73;;
62707;SDS011;48769;51.624;5.886;2024-01-30T04:30:50;26.35;;;17.52;;
62707;SDS011;48769;51.624;5.886;2024-01-30T04:33:16;22.67;;;15.95;;
62707;SDS011;48769;51.624;5.886;2024-01-30T04:35:43;25.88;;;16.10;;
62707;SDS011;48769;51.624;5.886;2024-01-30T04:38:08;26.80;;;18.02;;
62707;SDS011;48769;51.624;5.886;2024-01-30T04:40:33;25.60;;;16.02;;
62707;SDS011;48769;51.624;5.886;2024-01-30T04:42:59;23.08;;;17.15;;
62707;SDS011;48769;51.624;5.886;2024-01-30T04:45:24;24.10;;;15.68;;
62707;SDS011;48769;51.624;5.886;2024-01-30T04:47:49;25.67;;;16.33;;
62707;SDS011;48769;51.624;5.886;2024-01-30T04:50:15;25.35;;;16.00;;
62707;SDS011;48769;51.624;5.886;2024-01-30T04:52:40;21.58;;;15.98;;
62707;SDS011;48769;51.624;5.886;2024-01-30T04:55:06;22.58;;;15.43;;
62707;SDS011;48769;51.624;5.886;2024-01-30T04:57:32;22.77;;;16.08;;
62707;SDS011;48769;51.624;5.886;2024-01-30T04:59:58;24.23;;;15.85;;
62707;SDS011;48769;51.624;5.886;2024-01-30T05:02:24;22.92;;;16.17;;
62707;SDS011;48769;51.624;5.886;2024-01-30T05:04:49;24.50;;;16.25;;
62707;SDS011;48769;51.624;5.886;2024-01-30T05:07:15;24.30;;;16.65;;
62707;SDS011;48769;51.624;5.886;2024-01-30T05:09:40;26.30;;;16.80;;
62707;SDS011;48769;51.624;5.886;2024-01-30T05:12:06;20.30;;;16.02;;
62707;SDS011;48769;51.624;5.886;2024-01-30T05:14:32;25.92;;;16.60;;
62707;SDS011;48769;51.624;5.886;2024-01-30T05:16:57;22.90;;;16.13;;
62707;SDS011;48769;51.624;5.886;2024-01-30T05:19:23;22.67;;;14.25;;
62707;SDS011;48769;51.624;5.886;2024-01-30T05:21:48;21.65;;;14.63;;
62707;SDS011;48769;51.624;5.886;2024-01-30T05:24:14;23.40;;;15.25;;
62707;SDS011;48769;51.624;5.886;2024-01-30T05:26:39;22.23;;;14.43;;
62707;SDS011;48769;51.624;5.886;2024-01-30T05:29:06;23.23;;;15.18;;
62707;SDS011;48769;51.624;5.886;2024-01-30T05:31:31;24.80;;;14.68;;
62707;SDS011;48769;51.624;5.886;2024-01-30T05:33:57;23.25;;;15.23;;
62707;SDS011;48769;51.624;5.886;2024-01-30T05:36:22;22.45;;;15.32;;
62707;SDS011;48769;51.624;5.886;2024-01-30T05:38:48;20.95;;;14.20;;
62707;SDS011;48769;51.624;5.886;2024-01-30T05:41:13;21.75;;;13.80;;
62707;SDS011;48769;51.624;5.886;2024-01-30T05:43:38;20.13;;;14.23;;
62707;SDS011;48769;51.624;5.886;2024-01-30T05:46:04;19.92;;;13.95;;
62707;SDS011;48769;51.624;5.886;2024-01-30T05:48:29;23.90;;;14.82;;
62707;SDS011;48769;51.624;5.886;2024-01-30T05:50:54;22.13;;;13.93;;
62707;SDS011;48769;51.624;5.886;2024-01-30T05:53:20;19.67;;;13.88;;
62707;SDS011;48769;51.624;5.886;2024-01-30T05:55:45;23.30;;;14.60;;
62707;SDS011;48769;51.624;5.886;2024-01-30T05:58:11;19.90;;;12.55;;
62707;SDS011;48769;51.624;5.886;2024-01-30T06:00:36;25.30;;;14.43;;
62707;SDS011;48769;51.624;5.886;2024-01-30T06:03:01;21.67;;;14.38;;
62707;SDS011;48769;51.624;5.886;2024-01-30T06:05:27;19.70;;;13.88;;
62707;SDS011;48769;51.624;5.886;2024-01-30T06:07:52;20.52;;;13.20;;
62707;SDS011;48769;51.624;5.886;2024-01-30T06:10:18;20.90;;;12.70;;
62707;SDS011;48769;51.624;5.886;2024-01-30T06:12:44;19.98;;;12.68;;
62707;SDS011;48769;51.624;5.886;2024-01-30T06:15:09;17.98;;;12.48;;
62707;SDS011;48769;51.624;5.886;2024-01-30T06:17:35;18.27;;;12.50;;
62707;SDS011;48769;51.624;5.886;2024-01-30T06:20:00;21.05;;;12.65;;
62707;SDS011;48769;51.624;5.886;2024-01-30T06:22:25;20.92;;;12.40;;
62707;SDS011;48769;51.624;5.886;2024-01-30T06:24:51;20.52;;;13.00;;
62707;SDS011;48769;51.624;5.886;2024-01-30T06:27:16;21.70;;;13.25;;
62707;SDS011;48769;51.624;5.886;2024-01-30T06:29:42;19.65;;;13.70;;
62707;SDS011;48769;51.624;5.886;2024-01-30T06:32:08;20.65;;;13.32;;
62707;SDS011;48769;51.624;5.886;2024-01-30T06:34:33;22.90;;;13.77;;
62707;SDS011;48769;51.624;5.886;2024-01-30T06:36:59;22.35;;;14.30;;
62707;SDS011;48769;51.624;5.886;2024-01-30T06:39:24;23.15;;;14.57;;
62707;SDS011;48769;51.624;5.886;2024-01-30T06:41:50;20.77;;;14.27;;
62707;SDS011;48769;51.624;5.886;2024-01-30T06:44:15;21.00;;;13.13;;
62707;SDS011;48769;51.624;5.886;2024-01-30T06:46:40;25.08;;;14.77;;
62707;SDS011;48769;51.624;5.886;2024-01-30T06:49:06;19.52;;;13.38;;
62707;SDS011;48769;51.624;5.886;2024-01-30T06:51:31;18.98;;;13.63;;
62707;SDS011;48769;51.624;5.886;2024-01-30T06:53:57;17.25;;;13.63;;
62707;SDS011;48769;51.624;5.886;2024-01-30T06:56:22;20.17;;;14.10;;
62707;SDS011;48769;51.624;5.886;2024-01-30T06:58:50;21.10;;;14.02;;
62707;SDS011;48769;51.624;5.886;2024-01-30T07:01:16;18.10;;;14.43;;
62707;SDS011;48769;51.624;5.886;2024-01-30T07:03:42;24.63;;;14.52;;
62707;SDS011;48769;51.624;5.886;2024-01-30T07:06:07;20.77;;;12.93;;
62707;SDS011;48769;51.624;5.886;2024-01-30T07:08:33;19.60;;;13.65;;
62707;SDS011;48769;51.624;5.886;2024-01-30T07:10:58;21.33;;;14.55;;
62707;SDS011;48769;51.624;5.886;2024-01-30T07:13:24;20.77;;;14.35;;
62707;SDS011;48769;51.624;5.886;2024-01-30T07:15:50;19.35;;;13.70;;
62707;SDS011;48769;51.624;5.886;2024-01-30T07:18:15;21.98;;;14.10;;
62707;SDS011;48769;51.624;5.886;2024-01-30T07:20:40;21.13;;;12.98;;
62707;SDS011;48769;51.624;5.886;2024-01-30T07:23:14;22.85;;;14.70;;
62707;SDS011;48769;51.624;5.886;2024-01-30T07:25:42;20.45;;;13.90;;
62707;SDS011;48769;51.624;5.886;2024-01-30T07:28:08;18.95;;;14.80;;
62707;SDS011;48769;51.624;5.886;2024-01-30T07:30:35;20.30;;;14.23;;
62707;SDS011;48769;51.624;5.886;2024-01-30T07:33:00;19.30;;;13.55;;
62707;SDS011;48769;51.624;5.886;2024-01-30T07:35:25;19.05;;;13.32;;
62707;SDS011;48769;51.624;5.886;2024-01-30T07:37:50;16.92;;;12.75;;
62707;SDS011;48769;51.624;5.886;2024-01-30T07:40:16;18.27;;;13.13;;
62707;SDS011;48769;51.624;5.886;2024-01-30T07:42:42;18.50;;;13.15;;
62707;SDS011;48769;51.624;5.886;2024-01-30T07:45:08;19.10;;;12.90;;
62707;SDS011;48769;51.624;5.886;2024-01-30T07:47:33;18.48;;;12.57;;
62707;SDS011;48769;51.624;5.886;2024-01-30T07:49:58;20.70;;;12.60;;
62707;SDS011;48769;51.624;5.886;2024-01-30T07:52:24;18.85;;;13.07;;
62707;SDS011;48769;51.624;5.886;2024-01-30T07:54:49;18.17;;;12.45;;
62707;SDS011;48769;51.624;5.886;2024-01-30T07:57:15;23.67;;;13.60;;
62707;SDS011;48769;51.624;5.886;2024-01-30T07:59:42;21.00;;;13.98;;
62707;SDS011;48769;51.624;5.886;2024-01-30T08:02:09;19.23;;;12.18;;
62707;SDS011;48769;51.624;5.886;2024-01-30T08:04:34;21.25;;;13.73;;
62707;SDS011;48769;51.624;5.886;2024-01-30T08:06:59;18.58;;;13.40;;
62707;SDS011;48769;51.624;5.886;2024-01-30T08:09:24;17.65;;;12.15;;
62707;SDS011;48769;51.624;5.886;2024-01-30T08:11:50;15.95;;;12.90;;
62707;SDS011;48769;51.624;5.886;2024-01-30T08:14:15;18.35;;;13.23;;
62707;SDS011;48769;51.624;5.886;2024-01-30T08:16:40;17.92;;;12.60;;
62707;SDS011;48769;51.624;5.886;2024-01-30T08:19:06;22.65;;;14.18;;
62707;SDS011;48769;51.624;5.886;2024-01-30T08:21:31;21.73;;;13.27;;
62707;SDS011;48769;51.624;5.886;2024-01-30T08:24:01;20.05;;;12.30;;
62707;SDS011;48769;51.624;5.886;2024-01-30T08:26:28;17.13;;;12.77;;
62707;SDS011;48769;51.624;5.886;2024-01-30T08:28:53;19.23;;;12.57;;
62707;SDS011;48769;51.624;5.886;2024-01-30T08:31:19;14.70;;;11.90;;
62707;SDS011;48769;51.624;5.886;2024-01-30T08:33:44;19.17;;;11.30;;
62707;SDS011;48769;51.624;5.886;2024-01-30T08:36:09;17.98;;;10.45;;
62707;SDS011;48769;51.624;5.886;2024-01-30T08:38:35;16.80;;;11.52;;
62707;SDS011;48769;51.624;5.886;2024-01-30T08:41:00;18.15;;;9.77;;
62707;SDS011;48769;51.624;5.886;2024-01-30T08:43:25;13.73;;;10.02;;
62707;SDS011;48769;51.624;5.886;2024-01-30T08:45:51;11.95;;;8.65;;
62707;SDS011;48769;51.624;5.886;2024-01-30T08:48:16;19.63;;;11.70;;
62707;SDS011;48769;51.624;5.886;2024-01-30T08:50:42;19.65;;;11.00;;
62707;SDS011;48769;51.624;5.886;2024-01-30T08:53:08;17.25;;;10.45;;
62707;SDS011;48769;51.624;5.886;2024-01-30T08:55:33;16.58;;;11.63;;
62707;SDS011;48769;51.624;5.886;2024-01-30T08:57:58;19.55;;;10.98;;
62707;SDS011;48769;51.624;5.886;2024-01-30T09:00:24;18.17;;;11.32;;
62707;SDS011;48769;51.624;5.886;2024-01-30T09:02:49;15.90;;;10.93;;
62707;SDS011;48769;51.624;5.886;2024-01-30T09:05:15;14.50;;;10.70;;
62707;SDS011;48769;51.624;5.886;2024-01-30T09:07:43;19.58;;;10.85;;
62707;SDS011;48769;51.624;5.886;2024-01-30T09:10:08;20.08;;;10.93;;
62707;SDS011;48769;51.624;5.886;2024-01-30T09:12:33;19.83;;;10.85;;
62707;SDS011;48769;51.624;5.886;2024-01-30T09:14:59;17.30;;;9.48;;
62707;SDS011;48769;51.624;5.886;2024-01-30T09:17:24;16.08;;;10.15;;
62707;SDS011;48769;51.624;5.886;2024-01-30T09:19:50;16.98;;;10.88;;
62707;SDS011;48769;51.624;5.886;2024-01-30T09:22:15;15.35;;;10.43;;
62707;SDS011;48769;51.624;5.886;2024-01-30T09:24:40;15.10;;;10.57;;
62707;SDS011;48769;51.624;5.886;2024-01-30T09:27:06;15.10;;;10.73;;
62707;SDS011;48769;51.624;5.886;2024-01-30T09:29:31;19.42;;;10.95;;
62707;SDS011;48769;51.624;5.886;2024-01-30T09:31:59;15.07;;;10.95;;
62707;SDS011;48769;51.624;5.886;2024-01-30T09:34:24;16.10;;;10.38;;
62707;SDS011;48769;51.624;5.886;2024-01-30T09:36:50;18.17;;;11.02;;
62707;SDS011;48769;51.624;5.886;2024-01-30T09:39:15;18.90;;;11.05;;
62707;SDS011;48769;51.624;5.886;2024-01-30T09:41:53;17.50;;;11.18;;
62707;SDS011;48769;51.624;5.886;2024-01-30T09:44:27;16.30;;;10.95;;
62707;SDS011;48769;51.624;5.886;2024-01-30T09:46:54;15.07;;;10.10;;
62707;SDS011;48769;51.624;5.886;2024-01-30T09:49:20;16.70;;;11.23;;
62707;SDS011;48769;51.624;5.886;2024-01-30T09:51:48;16.27;;;11.18;;
62707;SDS011;48769;51.624;5.886;2024-01-30T09:54:15;17.02;;;11.60;;
62707;SDS011;48769;51.624;5.886;2024-01-30T09:56:41;16.38;;;11.10;;
62707;SDS011;48769;51.624;5.886;2024-01-30T09:59:06;18.83;;;11.75;;
62707;SDS011;48769;51.624;5.886;2024-01-30T10:01:31;17.65;;;11.77;;
62707;SDS011;48769;51.624;5.886;2024-01-30T10:03:59;15.02;;;11.18;;
62707;SDS011;48769;51.624;5.886;2024-01-30T10:06:25;18.48;;;11.68;;
62707;SDS011;48769;51.624;5.886;2024-01-30T10:08:52;22.13;;;17.25;;
62707;SDS011;48769;51.624;5.886;2024-01-30T10:11:17;21.25;;;17.63;;
62707;SDS011;48769;51.624;5.886;2024-01-30T10:13:43;20.75;;;18.55;;
62707;SDS011;48769;51.624;5.886;2024-01-30T10:16:08;22.27;;;16.45;;
62707;SDS011;48769;51.624;5.886;2024-01-30T10:18:33;23.08;;;17.40;;
62707;SDS011;48769;51.624;5.886;2024-01-30T10:20:59;21.45;;;15.90;;
62707;SDS011;48769;51.624;5.886;2024-01-30T10:23:24;20.15;;;13.55;;
62707;SDS011;48769;51.624;5.886;2024-01-30T10:25:53;20.30;;;13.68;;
62707;SDS011;48769;51.624;5.886;2024-01-30T10:28:18;22.65;;;13.10;;
62707;SDS011;48769;51.624;5.886;2024-01-30T10:30:43;22.70;;;12.85;;
62707;SDS011;48769;51.624;5.886;2024-01-30T10:33:09;19.70;;;13.02;;
62707;SDS011;48769;51.624;5.886;2024-01-30T10:35:34;21.60;;;12.63;;
62707;SDS011;48769;51.624;5.886;2024-01-30T10:38:00;21.58;;;12.82;;
62707;SDS011;48769;51.624;5.886;2024-01-30T10:40:27;15.40;;;11.82;;
62707;SDS011;48769;51.624;5.886;2024-01-30T10:42:53;20.17;;;12.65;;
62707;SDS011;48769;51.624;5.886;2024-01-30T10:45:21;19.65;;;11.68;;
62707;SDS011;48769;51.624;5.886;2024-01-30T10:47:50;17.27;;;11.93;;
62707;SDS011;48769;51.624;5.886;2024-01-30T10:50:21;22.90;;;12.93;;
62707;SDS011;48769;51.624;5.886;2024-01-30T10:52:49;23.08;;;12.30;;
62707;SDS011;48769;51.624;5.886;2024-01-30T10:55:16;19.55;;;12.60;;
62707;SDS011;48769;51.624;5.886;2024-01-30T10:57:43;18.35;;;11.77;;
62707;SDS011;48769;51.624;5.886;2024-01-30T11:00:09;20.45;;;12.23;;
62707;SDS011;48769;51.624;5.886;2024-01-30T11:02:40;18.40;;;11.52;;
62707;SDS011;48769;51.624;5.886;2024-01-30T11:05:08;21.83;;;12.55;;
62707;SDS011;48769;51.624;5.886;2024-01-30T11:07:34;19.10;;;12.25;;
62707;SDS011;48769;51.624;5.886;2024-01-30T11:10:01;20.48;;;11.77;;
62707;SDS011;48769;51.624;5.886;2024-01-30T11:12:29;23.92;;;12.23;;
62707;SDS011;48769;51.624;5.886;2024-01-30T11:15:16;20.33;;;12.00;;
62707;SDS011;48769;51.624;5.886;2024-01-30T11:20:19;20.98;;;12.93;;
62707;SDS011;48769;51.624;5.886;2024-01-30T11:22:46;20.33;;;11.93;;
62707;SDS011;48769;51.624;5.886;2024-01-30T11:25:15;23.13;;;11.55;;
62707;SDS011;48769;51.624;5.886;2024-01-30T11:27:45;16.60;;;10.95;;
62707;SDS011;48769;51.624;5.886;2024-01-30T11:30:27;23.17;;;12.57;;
62707;SDS011;48769;51.624;5.886;2024-01-30T11:33:03;20.02;;;10.90;;
62707;SDS011;48769;51.624;5.886;2024-01-30T11:35:32;24.35;;;12.25;;
62707;SDS011;48769;51.624;5.886;2024-01-30T11:37:59;19.63;;;11.77;;
62707;SDS011;48769;51.624;5.886;2024-01-30T11:40:28;16.90;;;11.18;;
62707;SDS011;48769;51.624;5.886;2024-01-30T11:42:58;24.25;;;12.07;;
62707;SDS011;48769;51.624;5.886;2024-01-30T11:45:24;21.42;;;12.73;;
62707;SDS011;48769;51.624;5.886;2024-01-30T11:47:51;21.02;;;12.18;;
62707;SDS011;48769;51.624;5.886;2024-01-30T11:50:16;20.52;;;12.15;;
62707;SDS011;48769;51.624;5.886;2024-01-30T11:52:42;25.58;;;12.63;;
62707;SDS011;48769;51.624;5.886;2024-01-30T11:55:08;21.55;;;12.32;;
62707;SDS011;48769;51.624;5.886;2024-01-30T11:57:34;16.50;;;11.77;;
62707;SDS011;48769;51.624;5.886;2024-01-30T12:00:04;20.05;;;11.63;;
62707;SDS011;48769;51.624;5.886;2024-01-30T12:02:35;13.57;;;10.60;;
62707;SDS011;48769;51.624;5.886;2024-01-30T12:05:05;18.13;;;10.90;;
62707;SDS011;48769;51.624;5.886;2024-01-30T12:07:31;18.60;;;11.80;;
62707;SDS011;48769;51.624;5.886;2024-01-30T12:09:57;23.00;;;11.98;;
62707;SDS011;48769;51.624;5.886;2024-01-30T12:12:25;24.38;;;11.57;;
62707;SDS011;48769;51.624;5.886;2024-01-30T12:14:51;21.17;;;10.95;;
62707;SDS011;48769;51.624;5.886;2024-01-30T12:17:25;22.15;;;11.18;;
62707;SDS011;48769;51.624;5.886;2024-01-30T12:20:04;25.50;;;11.82;;
62707;SDS011;48769;51.624;5.886;2024-01-30T12:25:09;23.85;;;12.05;;
62707;SDS011;48769;51.624;5.886;2024-01-30T12:27:36;17.52;;;11.57;;
62707;SDS011;48769;51.624;5.886;2024-01-30T12:30:06;23.45;;;12.73;;
62707;SDS011;48769;51.624;5.886;2024-01-30T12:32:34;17.98;;;11.18;;
62707;SDS011;48769;51.624;5.886;2024-01-30T12:35:00;19.30;;;11.45;;
62707;SDS011;48769;51.624;5.886;2024-01-30T12:37:25;19.15;;;10.55;;
62707;SDS011;48769;51.624;5.886;2024-01-30T12:39:51;28.52;;;12.23;;
62707;SDS011;48769;51.624;5.886;2024-01-30T12:42:19;21.25;;;11.30;;
62707;SDS011;48769;51.624;5.886;2024-01-30T12:44:45;18.17;;;11.10;;
62707;SDS011;48769;51.624;5.886;2024-01-30T12:47:10;16.00;;;9.40;;
62707;SDS011;48769;51.624;5.886;2024-01-30T12:49:36;19.50;;;10.43;;
62707;SDS011;48769;51.624;5.886;2024-01-30T12:52:01;19.50;;;9.77;;
62707;SDS011;48769;51.624;5.886;2024-01-30T12:54:27;17.40;;;10.27;;
62707;SDS011;48769;51.624;5.886;2024-01-30T12:56:52;19.55;;;9.68;;
62707;SDS011;48769;51.624;5.886;2024-01-30T12:59:17;15.68;;;9.43;;
62707;SDS011;48769;51.624;5.886;2024-01-30T13:01:43;17.30;;;9.45;;
62707;SDS011;48769;51.624;5.886;2024-01-30T13:04:08;20.73;;;9.75;;
62707;SDS011;48769;51.624;5.886;2024-01-30T13:06:34;14.57;;;9.13;;
62707;SDS011;48769;51.624;5.886;2024-01-30T13:08:59;13.27;;;7.30;;
62707;SDS011;48769;51.624;5.886;2024-01-30T13:11:24;12.13;;;6.13;;
62707;SDS011;48769;51.624;5.886;2024-01-30T13:13:50;15.45;;;6.10;;
62707;SDS011;48769;51.624;5.886;2024-01-30T13:16:16;16.10;;;5.72;;
62707;SDS011;48769;51.624;5.886;2024-01-30T13:18:41;10.50;;;4.70;;
62707;SDS011;48769;51.624;5.886;2024-01-30T13:21:07;7.40;;;3.72;;
62707;SDS011;48769;51.624;5.886;2024-01-30T13:23:32;7.63;;;3.22;;
62707;SDS011;48769;51.624;5.886;2024-01-30T13:25:58;4.80;;;2.30;;
62707;SDS011;48769;51.624;5.886;2024-01-30T13:28:23;6.82;;;2.55;;
62707;SDS011;48769;51.624;5.886;2024-01-30T13:30:50;3.90;;;2.08;;
62707;SDS011;48769;51.624;5.886;2024-01-30T13:33:16;5.18;;;2.13;;
62707;SDS011;48769;51.624;5.886;2024-01-30T13:35:41;5.13;;;2.55;;
62707;SDS011;48769;51.624;5.886;2024-01-30T13:38:07;3.47;;;1.70;;
62707;SDS011;48769;51.624;5.886;2024-01-30T13:40:33;5.10;;;2.03;;
62707;SDS011;48769;51.624;5.886;2024-01-30T13:42:58;6.35;;;1.95;;
62707;SDS011;48769;51.624;5.886;2024-01-30T13:45:23;4.63;;;1.80;;
62707;SDS011;48769;51.624;5.886;2024-01-30T13:47:49;4.05;;;1.95;;
62707;SDS011;48769;51.624;5.886;2024-01-30T13:50:14;3.05;;;1.70;;
62707;SDS011;48769;51.624;5.886;2024-01-30T13:52:41;4.63;;;1.65;;
62707;SDS011;48769;51.624;5.886;2024-01-30T13:55:07;7.03;;;2.17;;
62707;SDS011;48769;51.624;5.886;2024-01-30T13:57:34;6.15;;;1.60;;
62707;SDS011;48769;51.624;5.886;2024-01-30T14:00:01;3.60;;;1.85;;
62707;SDS011;48769;51.624;5.886;2024-01-30T14:02:30;4.97;;;2.08;;
62707;SDS011;48769;51.624;5.886;2024-01-30T14:04:55;4.20;;;1.90;;
62707;SDS011;48769;51.624;5.886;2024-01-30T14:07:21;3.70;;;1.77;;
62707;SDS011;48769;51.624;5.886;2024-01-30T14:09:47;3.83;;;1.70;;
62707;SDS011;48769;51.624;5.886;2024-01-30T14:12:13;3.58;;;2.05;;
62707;SDS011;48769;51.624;5.886;2024-01-30T14:14:38;6.63;;;2.13;;
62707;SDS011;48769;51.624;5.886;2024-01-30T14:17:03;7.85;;;2.15;;
62707;SDS011;48769;51.624;5.886;2024-01-30T14:19:31;8.55;;;2.63;;
62707;SDS011;48769;51.624;5.886;2024-01-30T14:21:56;5.28;;;2.50;;